LKHB weather

Havlíčkův Brod Airport
Havlíčkův Brod, Vysočina Region, Czechia

Public forecast

Using degrees Celsius for public forecast. Weather courtesy of forecast.io.

Closest aviation weather report (METAR) to Havlíčkův Brod Airport

Closest report is Čáslav Air Base, 21.6 nm (39.9 km) NNW. Retrieved 2019/10/16 05:00 UTC (38 minutes ago):

LKCV 160500Z 21007KT CAVOK 13/12 Q1010 NOSIG RMK BLU BLU

Closest aviation forecast (TAF) to Havlíčkův Brod Airport

Closest forecast is Čáslav Air Base, 21.6 nm (39.9 km) NNW. Retrieved 2019-10-16 00:06 UTC (6 hours ago):

TAF LKCV 152300Z 1600/1700 24004KT CAVOK PROB40 TEMPO 1600/1606 4000 BR BECMG 1604/1606 26010KT BKN030 TEMPO 1608/1614 7000 RA BKN020 TEMPO 1609/1620 27012G24KT BECMG 1614/1616 26006KT CAVOK